sensor_id;sensor_type;location;lat;lon;timestamp;pressure;altitude;pressure_sealevel;temperature;humidity
22031;BME280;11179;52.106;21.024;2024-01-06T00:02:17;99903.53;;;-2.10;68.02
22031;BME280;11179;52.106;21.024;2024-01-06T00:04:42;99921.63;;;-2.04;67.86
22031;BME280;11179;52.106;21.024;2024-01-06T00:07:08;99917.63;;;-2.08;67.82
22031;BME280;11179;52.106;21.024;2024-01-06T00:09:34;99925.63;;;-2.14;68.23
22031;BME280;11179;52.106;21.024;2024-01-06T00:11:59;99931.25;;;-2.09;68.58
22031;BME280;11179;52.106;21.024;2024-01-06T00:14:25;99921.16;;;-2.07;68.06
22031;BME280;11179;52.106;21.024;2024-01-06T00:16:50;99922.81;;;-2.06;68.20
22031;BME280;11179;52.106;21.024;2024-01-06T00:19:15;99921.34;;;-2.09;68.25
22031;BME280;11179;52.106;21.024;2024-01-06T00:21:42;99921.34;;;-2.09;68.26
22031;BME280;11179;52.106;21.024;2024-01-06T00:24:08;99908.84;;;-2.16;68.29
22031;BME280;11179;52.106;21.024;2024-01-06T00:26:33;99912.72;;;-2.19;68.28
22031;BME280;11179;52.106;21.024;2024-01-06T00:28:58;99930.25;;;-2.08;68.55
22031;BME280;11179;52.106;21.024;2024-01-06T00:31:24;99940.34;;;-2.10;68.53
22031;BME280;11179;52.106;21.024;2024-01-06T00:33:49;99933.22;;;-2.18;68.60
22031;BME280;11179;52.106;21.024;2024-01-06T00:36:14;99944.06;;;-2.11;68.62
22031;BME280;11179;52.106;21.024;2024-01-06T00:38:39;99941.84;;;-2.08;69.07
22031;BME280;11179;52.106;21.024;2024-01-06T00:41:05;99934.59;;;-2.07;68.45
22031;BME280;11179;52.106;21.024;2024-01-06T00:43:30;99951.56;;;-2.07;68.46
22031;BME280;11179;52.106;21.024;2024-01-06T00:45:55;99941.66;;;-2.06;68.82
22031;BME280;11179;52.106;21.024;2024-01-06T00:48:21;99941.00;;;-2.08;68.63
22031;BME280;11179;52.106;21.024;2024-01-06T00:50:46;99935.72;;;-2.02;68.72
22031;BME280;11179;52.106;21.024;2024-01-06T00:53:12;99925.50;;;-2.06;68.58
22031;BME280;11179;52.106;21.024;2024-01-06T00:55:38;99923.19;;;-2.09;68.41
22031;BME280;11179;52.106;21.024;2024-01-06T00:58:03;99915.50;;;-2.12;68.86
22031;BME280;11179;52.106;21.024;2024-01-06T01:00:28;99900.59;;;-2.15;69.01
22031;BME280;11179;52.106;21.024;2024-01-06T01:02:54;99898.91;;;-2.16;68.96
22031;BME280;11179;52.106;21.024;2024-01-06T01:05:19;99890.94;;;-2.24;69.18
22031;BME280;11179;52.106;21.024;2024-01-06T01:07:44;99884.16;;;-2.20;69.33
22031;BME280;11179;52.106;21.024;2024-01-06T01:10:10;99897.78;;;-2.21;69.29
22031;BME280;11179;52.106;21.024;2024-01-06T01:12:35;99880.47;;;-2.33;69.23
22031;BME280;11179;52.106;21.024;2024-01-06T01:15:01;99901.25;;;-2.27;69.49
22031;BME280;11179;52.106;21.024;2024-01-06T01:17:26;99897.91;;;-2.29;69.28
22031;BME280;11179;52.106;21.024;2024-01-06T01:19:52;99905.97;;;-2.29;69.28
22031;BME280;11179;52.106;21.024;2024-01-06T01:22:17;99901.88;;;-2.25;69.48
22031;BME280;11179;52.106;21.024;2024-01-06T01:24:42;99905.88;;;-2.21;69.54
22031;BME280;11179;52.106;21.024;2024-01-06T01:27:08;99904.78;;;-2.27;69.59
22031;BME280;11179;52.106;21.024;2024-01-06T01:29:33;99904.56;;;-2.25;69.32
22031;BME280;11179;52.106;21.024;2024-01-06T01:31:58;99903.28;;;-2.29;69.46
22031;BME280;11179;52.106;21.024;2024-01-06T01:34:24;99900.97;;;-2.32;69.58
22031;BME280;11179;52.106;21.024;2024-01-06T01:36:49;99898.34;;;-2.26;69.58
22031;BME280;11179;52.106;21.024;2024-01-06T01:39:15;99908.38;;;-2.20;69.48
22031;BME280;11179;52.106;21.024;2024-01-06T01:41:40;99903.19;;;-2.21;69.52
22031;BME280;11179;52.106;21.024;2024-01-06T01:44:06;99904.78;;;-2.27;69.14
22031;BME280;11179;52.106;21.024;2024-01-06T01:46:31;99902.09;;;-2.27;69.47
22031;BME280;11179;52.106;21.024;2024-01-06T01:48:58;99915.31;;;-2.25;69.46
22031;BME280;11179;52.106;21.024;2024-01-06T01:51:27;99910.16;;;-2.27;69.49
22031;BME280;11179;52.106;21.024;2024-01-06T01:53:53;99903.81;;;-2.19;69.27
22031;BME280;11179;52.106;21.024;2024-01-06T01:56:19;99910.31;;;-2.14;69.17
22031;BME280;11179;52.106;21.024;2024-01-06T01:58:46;99906.41;;;-2.11;69.25
22031;BME280;11179;52.106;21.024;2024-01-06T02:01:12;99921.81;;;-2.05;69.22
22031;BME280;11179;52.106;21.024;2024-01-06T02:03:38;99912.78;;;-1.97;69.10
22031;BME280;11179;52.106;21.024;2024-01-06T02:06:05;99905.94;;;-2.00;69.00
22031;BME280;11179;52.106;21.024;2024-01-06T02:08:31;99905.28;;;-2.02;69.08
22031;BME280;11179;52.106;21.024;2024-01-06T02:10:56;99899.91;;;-2.02;69.08
22031;BME280;11179;52.106;21.024;2024-01-06T02:13:22;99901.38;;;-2.00;69.09
22031;BME280;11179;52.106;21.024;2024-01-06T02:15:48;99892.50;;;-2.00;68.97
22031;BME280;11179;52.106;21.024;2024-01-06T02:18:13;99881.81;;;-2.08;68.91
22031;BME280;11179;52.106;21.024;2024-01-06T02:20:40;99896.94;;;-2.07;69.26
22031;BME280;11179;52.106;21.024;2024-01-06T02:23:08;99892.59;;;-2.08;69.16
22031;BME280;11179;52.106;21.024;2024-01-06T02:25:33;99886.56;;;-2.10;69.11
22031;BME280;11179;52.106;21.024;2024-01-06T02:27:58;99887.31;;;-2.16;69.23
22031;BME280;11179;52.106;21.024;2024-01-06T02:30:23;99880.47;;;-2.19;69.22
22031;BME280;11179;52.106;21.024;2024-01-06T02:32:49;99895.75;;;-2.19;69.26
22031;BME280;11179;52.106;21.024;2024-01-06T02:35:14;99897.44;;;-2.18;69.37
22031;BME280;11179;52.106;21.024;2024-01-06T02:37:39;99885.66;;;-2.17;69.02
22031;BME280;11179;52.106;21.024;2024-01-06T02:40:05;99877.66;;;-2.25;69.29
22031;BME280;11179;52.106;21.024;2024-01-06T02:42:31;99877.31;;;-2.22;69.08
22031;BME280;11179;52.106;21.024;2024-01-06T02:44:56;99868.22;;;-2.21;69.17
22031;BME280;11179;52.106;21.024;2024-01-06T02:47:21;99871.56;;;-2.19;69.12
22031;BME280;11179;52.106;21.024;2024-01-06T02:49:47;99867.19;;;-2.20;69.19
22031;BME280;11179;52.106;21.024;2024-01-06T02:52:12;99880.28;;;-2.17;69.00
22031;BME280;11179;52.106;21.024;2024-01-06T02:54:37;99875.53;;;-2.15;69.00
22031;BME280;11179;52.106;21.024;2024-01-06T02:57:02;99878.41;;;-2.17;68.96
22031;BME280;11179;52.106;21.024;2024-01-06T02:59:28;99876.94;;;-2.19;69.02
22031;BME280;11179;52.106;21.024;2024-01-06T03:01:53;99882.31;;;-2.19;68.97
22031;BME280;11179;52.106;21.024;2024-01-06T03:04:18;99883.16;;;-2.19;68.85
22031;BME280;11179;52.106;21.024;2024-01-06T03:06:44;99881.09;;;-2.17;69.01
22031;BME280;11179;52.106;21.024;2024-01-06T03:09:11;99882.31;;;-2.19;68.88
22031;BME280;11179;52.106;21.024;2024-01-06T03:11:37;99884.72;;;-2.24;68.88
22031;BME280;11179;52.106;21.024;2024-01-06T03:14:02;99876.28;;;-2.21;69.15
22031;BME280;11179;52.106;21.024;2024-01-06T03:16:28;99871.56;;;-2.19;68.98
22031;BME280;11179;52.106;21.024;2024-01-06T03:18:53;99879.25;;;-2.16;68.86
22031;BME280;11179;52.106;21.024;2024-01-06T03:21:19;99880.75;;;-2.14;69.03
22031;BME280;11179;52.106;21.024;2024-01-06T03:23:46;99880.63;;;-2.06;68.88
22031;BME280;11179;52.106;21.024;2024-01-06T03:26:11;99880.81;;;-2.07;68.87
22031;BME280;11179;52.106;21.024;2024-01-06T03:28:36;99873.09;;;-2.10;68.76
22031;BME280;11179;52.106;21.024;2024-01-06T03:31:02;99872.44;;;-2.12;68.86
22031;BME280;11179;52.106;21.024;2024-01-06T03:33:27;99887.13;;;-2.00;68.93
22031;BME280;11179;52.106;21.024;2024-01-06T03:35:52;99878.81;;;-1.98;68.81
22031;BME280;11179;52.106;21.024;2024-01-06T03:38:18;99876.16;;;-2.13;68.73
22031;BME280;11179;52.106;21.024;2024-01-06T03:40:43;99869.41;;;-2.24;69.08
22031;BME280;11179;52.106;21.024;2024-01-06T03:43:08;99866.38;;;-2.36;69.05
22031;BME280;11179;52.106;21.024;2024-01-06T03:45:34;99876.00;;;-2.26;69.23
22031;BME280;11179;52.106;21.024;2024-01-06T03:47:59;99885.13;;;-2.27;69.23
22031;BME280;11179;52.106;21.024;2024-01-06T03:50:24;99870.53;;;-2.33;69.39
22031;BME280;11179;52.106;21.024;2024-01-06T03:52:49;99879.63;;;-2.34;69.58
22031;BME280;11179;52.106;21.024;2024-01-06T03:55:15;99876.09;;;-2.34;69.50
22031;BME280;11179;52.106;21.024;2024-01-06T03:57:41;99869.53;;;-2.32;69.42
22031;BME280;11179;52.106;21.024;2024-01-06T04:00:07;99872.75;;;-2.22;69.42
22031;BME280;11179;52.106;21.024;2024-01-06T04:02:32;99870.63;;;-2.26;69.58
22031;BME280;11179;52.106;21.024;2024-01-06T04:04:58;99866.06;;;-2.26;69.37
22031;BME280;11179;52.106;21.024;2024-01-06T04:07:23;99868.59;;;-2.24;69.51
22031;BME280;11179;52.106;21.024;2024-01-06T04:09:48;99890.56;;;-2.21;69.40
22031;BME280;11179;52.106;21.024;2024-01-06T04:12:14;99896.31;;;-2.24;69.64
22031;BME280;11179;52.106;21.024;2024-01-06T04:14:39;99891.41;;;-2.20;69.67
22031;BME280;11179;52.106;21.024;2024-01-06T04:17:04;99894.28;;;-2.22;69.68
22031;BME280;11179;52.106;21.024;2024-01-06T04:19:30;99898.16;;;-2.24;69.45
22031;BME280;11179;52.106;21.024;2024-01-06T04:21:55;99889.25;;;-2.25;69.89
22031;BME280;11179;52.106;21.024;2024-01-06T04:24:20;99887.81;;;-2.27;69.73
22031;BME280;11179;52.106;21.024;2024-01-06T04:26:45;99890.84;;;-2.30;69.78
22031;BME280;11179;52.106;21.024;2024-01-06T04:29:11;99881.78;;;-2.29;69.97
22031;BME280;11179;52.106;21.024;2024-01-06T04:31:37;99878.44;;;-2.31;70.01
22031;BME280;11179;52.106;21.024;2024-01-06T04:34:02;99877.97;;;-2.35;70.01
22031;BME280;11179;52.106;21.024;2024-01-06T04:36:28;99872.41;;;-2.33;70.04
22031;BME280;11179;52.106;21.024;2024-01-06T04:38:54;99889.44;;;-2.26;70.01
22031;BME280;11179;52.106;21.024;2024-01-06T04:41:19;99883.81;;;-2.31;69.98
22031;BME280;11179;52.106;21.024;2024-01-06T04:43:44;99892.72;;;-2.31;70.12
22031;BME280;11179;52.106;21.024;2024-01-06T04:46:10;99886.38;;;-2.23;69.97
22031;BME280;11179;52.106;21.024;2024-01-06T04:48:35;99892.88;;;-2.18;69.96
22031;BME280;11179;52.106;21.024;2024-01-06T04:51:00;99891.31;;;-2.27;69.76
22031;BME280;11179;52.106;21.024;2024-01-06T04:53:28;99893.38;;;-2.29;70.06
22031;BME280;11179;52.106;21.024;2024-01-06T04:55:53;99899.56;;;-2.28;69.95
22031;BME280;11179;52.106;21.024;2024-01-06T04:58:18;99906.88;;;-2.22;70.04
22031;BME280;11179;52.106;21.024;2024-01-06T05:00:44;99906.63;;;-2.27;70.13
22031;BME280;11179;52.106;21.024;2024-01-06T05:03:10;99895.59;;;-2.32;70.08
22031;BME280;11179;52.106;21.024;2024-01-06T05:05:36;99897.91;;;-2.29;70.22
22031;BME280;11179;52.106;21.024;2024-01-06T05:08:01;99884.28;;;-2.28;70.38
22031;BME280;11179;52.106;21.024;2024-01-06T05:10:26;99888.41;;;-2.25;70.07
22031;BME280;11179;52.106;21.024;2024-01-06T05:12:52;99888.63;;;-2.27;70.17
22031;BME280;11179;52.106;21.024;2024-01-06T05:15:17;99887.88;;;-2.36;70.19
22031;BME280;11179;52.106;21.024;2024-01-06T05:17:42;99884.19;;;-2.34;70.37
22031;BME280;11179;52.106;21.024;2024-01-06T05:20:08;99898.44;;;-2.34;70.25
22031;BME280;11179;52.106;21.024;2024-01-06T05:22:34;99888.53;;;-2.33;70.50
22031;BME280;11179;52.106;21.024;2024-01-06T05:24:59;99885.84;;;-2.33;70.15
22031;BME280;11179;52.106;21.024;2024-01-06T05:27:24;99902.25;;;-2.28;70.34
22031;BME280;11179;52.106;21.024;2024-01-06T05:29:50;99905.38;;;-2.25;70.06
22031;BME280;11179;52.106;21.024;2024-01-06T05:32:16;99907.53;;;-2.20;70.17
22031;BME280;11179;52.106;21.024;2024-01-06T05:34:42;99915.22;;;-2.17;70.23
22031;BME280;11179;52.106;21.024;2024-01-06T05:37:08;99908.00;;;-2.17;70.24
22031;BME280;11179;52.106;21.024;2024-01-06T05:39:33;99893.91;;;-2.19;70.13
22031;BME280;11179;52.106;21.024;2024-01-06T05:41:58;99912.19;;;-2.14;70.24
22031;BME280;11179;52.106;21.024;2024-01-06T05:44:23;99914.94;;;-2.22;70.10
22031;BME280;11179;52.106;21.024;2024-01-06T05:46:50;99916.16;;;-2.25;70.47
22031;BME280;11179;52.106;21.024;2024-01-06T05:49:16;99912.44;;;-2.24;70.49
22031;BME280;11179;52.106;21.024;2024-01-06T05:51:45;99914.94;;;-2.22;70.42
22031;BME280;11179;52.106;21.024;2024-01-06T05:54:10;99910.34;;;-2.28;70.50
22031;BME280;11179;52.106;21.024;2024-01-06T05:56:36;99912.00;;;-2.27;70.70
22031;BME280;11179;52.106;21.024;2024-01-06T05:59:01;99910.69;;;-2.31;70.80
22031;BME280;11179;52.106;21.024;2024-01-06T06:01:28;99908.25;;;-2.26;70.82
22031;BME280;11179;52.106;21.024;2024-01-06T06:03:53;99912.53;;;-2.17;70.46
22031;BME280;11179;52.106;21.024;2024-01-06T06:06:18;99919.97;;;-2.19;70.36
22031;BME280;11179;52.106;21.024;2024-01-06T06:08:44;99926.00;;;-2.17;70.77
22031;BME280;11179;52.106;21.024;2024-01-06T06:11:10;99936.16;;;-2.13;70.42
22031;BME280;11179;52.106;21.024;2024-01-06T06:13:39;99926.81;;;-2.17;70.43
22031;BME280;11179;52.106;21.024;2024-01-06T06:16:06;99934.97;;;-2.10;70.50
22031;BME280;11179;52.106;21.024;2024-01-06T06:18:32;99930.72;;;-2.19;70.56
22031;BME280;11179;52.106;21.024;2024-01-06T06:20:58;99934.91;;;-2.17;70.75
22031;BME280;11179;52.106;21.024;2024-01-06T06:23:24;99938.03;;;-2.13;70.72
22031;BME280;11179;52.106;21.024;2024-01-06T06:25:50;99948.59;;;-2.12;70.43
22031;BME280;11179;52.106;21.024;2024-01-06T06:28:16;99948.88;;;-2.21;70.59
22031;BME280;11179;52.106;21.024;2024-01-06T06:30:41;99944.91;;;-2.25;70.80
22031;BME280;11179;52.106;21.024;2024-01-06T06:33:07;99958.91;;;-2.15;71.25
22031;BME280;11179;52.106;21.024;2024-01-06T06:35:32;99957.25;;;-2.16;70.84
22031;BME280;11179;52.106;21.024;2024-01-06T06:37:58;99951.88;;;-2.16;70.76
22031;BME280;11179;52.106;21.024;2024-01-06T06:40:23;99953.53;;;-2.15;70.76
22031;BME280;11179;52.106;21.024;2024-01-06T06:42:49;99958.16;;;-2.09;70.51
22031;BME280;11179;52.106;21.024;2024-01-06T06:45:14;99971.59;;;-2.09;70.46
22031;BME280;11179;52.106;21.024;2024-01-06T06:47:39;99974.59;;;-2.04;70.65
22031;BME280;11179;52.106;21.024;2024-01-06T06:50:05;99976.91;;;-2.01;70.31
22031;BME280;11179;52.106;21.024;2024-01-06T06:52:30;99977.16;;;-1.96;70.29
22031;BME280;11179;52.106;21.024;2024-01-06T06:54:56;99992.66;;;-1.98;70.08
22031;BME280;11179;52.106;21.024;2024-01-06T06:57:21;99994.63;;;-2.07;70.17
22031;BME280;11179;52.106;21.024;2024-01-06T06:59:47;99986.38;;;-2.05;70.55
22031;BME280;11179;52.106;21.024;2024-01-06T07:02:12;99988.88;;;-2.04;70.39
22031;BME280;11179;52.106;21.024;2024-01-06T07:04:37;99989.97;;;-1.98;70.67
22031;BME280;11179;52.106;21.024;2024-01-06T07:07:03;99979.84;;;-1.96;70.30
22031;BME280;11179;52.106;21.024;2024-01-06T07:09:28;99989.97;;;-1.98;69.89
22031;BME280;11179;52.106;21.024;2024-01-06T07:11:53;99982.66;;;-2.04;70.20
22031;BME280;11179;52.106;21.024;2024-01-06T07:14:19;99980.63;;;-2.02;70.14
22031;BME280;11179;52.106;21.024;2024-01-06T07:16:44;99980.97;;;-2.05;70.22
22031;BME280;11179;52.106;21.024;2024-01-06T07:19:09;99982.47;;;-2.03;70.31
22031;BME280;11179;52.106;21.024;2024-01-06T07:21:36;99986.38;;;-2.05;70.22
22031;BME280;11179;52.106;21.024;2024-01-06T07:24:02;99987.66;;;-2.01;70.26
22031;BME280;11179;52.106;21.024;2024-01-06T07:26:27;99992.03;;;-2.00;70.18
22031;BME280;11179;52.106;21.024;2024-01-06T07:28:53;99989.59;;;-1.95;70.21
22031;BME280;11179;52.106;21.024;2024-01-06T07:31:18;99989.22;;;-1.92;70.22
22031;BME280;11179;52.106;21.024;2024-01-06T07:33:43;99988.22;;;-1.91;69.86
22031;BME280;11179;52.106;21.024;2024-01-06T07:36:09;99989.22;;;-1.92;69.91
22031;BME280;11179;52.106;21.024;2024-01-06T07:38:34;99989.97;;;-1.98;69.95
22031;BME280;11179;52.106;21.024;2024-01-06T07:40:59;99990.63;;;-1.96;70.00
22031;BME280;11179;52.106;21.024;2024-01-06T07:43:25;99996.09;;;-1.89;69.96
22031;BME280;11179;52.106;21.024;2024-01-06T07:45:50;100001.38;;;-1.96;69.77
22031;BME280;11179;52.106;21.024;2024-01-06T07:48:16;100003.41;;;-1.98;69.72
22031;BME280;11179;52.106;21.024;2024-01-06T07:50:41;100017.16;;;-1.93;70.08
22031;BME280;11179;52.106;21.024;2024-01-06T07:53:07;100010.75;;;-1.92;69.85
22031;BME280;11179;52.106;21.024;2024-01-06T07:55:32;100004.53;;;-1.92;69.71
22031;BME280;11179;52.106;21.024;2024-01-06T07:57:57;100010.84;;;-1.85;69.87
22031;BME280;11179;52.106;21.024;2024-01-06T08:00:22;100012.44;;;-1.91;69.52
22031;BME280;11179;52.106;21.024;2024-01-06T08:02:48;100018.34;;;-1.95;69.84
22031;BME280;11179;52.106;21.024;2024-01-06T08:05:13;99997.13;;;-2.05;69.84
22031;BME280;11179;52.106;21.024;2024-01-06T08:07:39;100010.88;;;-2.00;69.97
22031;BME280;11179;52.106;21.024;2024-01-06T08:10:05;100011.41;;;-1.90;69.96
22031;BME280;11179;52.106;21.024;2024-01-06T08:12:31;100018.72;;;-1.84;69.86
22031;BME280;11179;52.106;21.024;2024-01-06T08:14:56;100024.38;;;-1.79;69.96
22031;BME280;11179;52.106;21.024;2024-01-06T08:17:21;100013.06;;;-1.74;69.63
22031;BME280;11179;52.106;21.024;2024-01-06T08:19:47;100018.66;;;-1.76;69.61
22031;BME280;11179;52.106;21.024;2024-01-06T08:22:13;100021.41;;;-1.84;69.62
22031;BME280;11179;52.106;21.024;2024-01-06T08:24:38;100027.44;;;-1.82;69.56
22031;BME280;11179;52.106;21.024;2024-01-06T08:27:04;100030.50;;;-1.85;69.69
22031;BME280;11179;52.106;21.024;2024-01-06T08:29:30;100028.28;;;-1.81;69.64
22031;BME280;11179;52.106;21.024;2024-01-06T08:31:55;100033.78;;;-1.75;69.60
22031;BME280;11179;52.106;21.024;2024-01-06T08:34:20;100027.63;;;-1.83;69.34
22031;BME280;11179;52.106;21.024;2024-01-06T08:36:46;100041.94;;;-1.83;69.48
22031;BME280;11179;52.106;21.024;2024-01-06T08:39:12;100042.22;;;-1.78;69.51
22031;BME280;11179;52.106;21.024;2024-01-06T08:41:38;100040.25;;;-1.69;69.65
22031;BME280;11179;52.106;21.024;2024-01-06T08:44:03;100032.16;;;-1.69;69.47
22031;BME280;11179;52.106;21.024;2024-01-06T08:46:29;100043.69;;;-1.60;69.38
22031;BME280;11179;52.106;21.024;2024-01-06T08:48:56;100044.31;;;-1.58;69.15
22031;BME280;11179;52.106;21.024;2024-01-06T08:51:22;100055.00;;;-1.65;69.14
22031;BME280;11179;52.106;21.024;2024-01-06T08:53:49;100055.38;;;-1.68;69.20
22031;BME280;11179;52.106;21.024;2024-01-06T08:56:14;100049.69;;;-1.58;69.23
22031;BME280;11179;52.106;21.024;2024-01-06T08:58:41;100059.56;;;-1.66;69.02
22031;BME280;11179;52.106;21.024;2024-01-06T09:01:06;100069.03;;;-1.70;69.34
22031;BME280;11179;52.106;21.024;2024-01-06T09:03:31;100075.16;;;-1.61;68.99
22031;BME280;11179;52.106;21.024;2024-01-06T09:05:57;100074.22;;;-1.68;69.01
22031;BME280;11179;52.106;21.024;2024-01-06T09:08:23;100077.75;;;-1.68;69.39
22031;BME280;11179;52.106;21.024;2024-01-06T09:10:49;100080.53;;;-1.61;69.22
22031;BME280;11179;52.106;21.024;2024-01-06T09:13:17;100081.81;;;-1.57;69.17
22031;BME280;11179;52.106;21.024;2024-01-06T09:15:42;100078.88;;;-1.47;69.00
22031;BME280;11179;52.106;21.024;2024-01-06T09:18:08;100077.44;;;-1.43;69.01
22031;BME280;11179;52.106;21.024;2024-01-06T09:20:33;100076.78;;;-1.45;68.94
22031;BME280;11179;52.106;21.024;2024-01-06T09:22:59;100089.53;;;-1.39;68.99
22031;BME280;11179;52.106;21.024;2024-01-06T09:25:24;100082.84;;;-1.43;69.04
22031;BME280;11179;52.106;21.024;2024-01-06T09:27:50;100078.81;;;-1.33;68.91
22031;BME280;11179;52.106;21.024;2024-01-06T09:30:16;100069.28;;;-1.35;68.73
22031;BME280;11179;52.106;21.024;2024-01-06T09:32:41;100075.56;;;-1.28;68.85
22031;BME280;11179;52.106;21.024;2024-01-06T09:35:07;100071.38;;;-1.31;68.67
22031;BME280;11179;52.106;21.024;2024-01-06T09:37:32;100071.66;;;-1.25;68.73
22031;BME280;11179;52.106;21.024;2024-01-06T09:39:57;100075.44;;;-1.20;68.55
22031;BME280;11179;52.106;21.024;2024-01-06T09:42:24;100089.31;;;-1.23;68.58
22031;BME280;11179;52.106;21.024;2024-01-06T09:44:49;100088.69;;;-1.40;68.46
22031;BME280;11179;52.106;21.024;2024-01-06T09:47:17;100082.66;;;-1.42;68.74
22031;BME280;11179;52.106;21.024;2024-01-06T09:49:48;100074.09;;;-1.31;69.06
22031;BME280;11179;52.106;21.024;2024-01-06T09:52:14;100073.53;;;-1.26;68.61
22031;BME280;11179;52.106;21.024;2024-01-06T09:54:48;100075.50;;;-1.35;68.47
22031;BME280;11179;52.106;21.024;2024-01-06T09:57:15;100082.63;;;-1.27;68.76
22031;BME280;11179;52.106;21.024;2024-01-06T09:59:44;100067.22;;;-1.33;68.83
22031;BME280;11179;52.106;21.024;2024-01-06T10:02:14;100079.66;;;-1.32;68.66
22031;BME280;11179;52.106;21.024;2024-01-06T10:04:40;100079.59;;;-1.39;68.70
22031;BME280;11179;52.106;21.024;2024-01-06T10:07:05;100086.66;;;-1.38;68.71
22031;BME280;11179;52.106;21.024;2024-01-06T10:09:31;100081.44;;;-1.39;68.62
22031;BME280;11179;52.106;21.024;2024-01-06T10:11:56;100085.63;;;-1.37;68.67
22031;BME280;11179;52.106;21.024;2024-01-06T10:14:25;100091.66;;;-1.35;68.72
22031;BME280;11179;52.106;21.024;2024-01-06T10:16:53;100092.28;;;-1.33;68.89
22031;BME280;11179;52.106;21.024;2024-01-06T10:19:19;100090.44;;;-1.32;68.55
22031;BME280;11179;52.106;21.024;2024-01-06T10:21:45;100087.47;;;-1.22;68.50
22031;BME280;11179;52.106;21.024;2024-01-06T10:24:10;100087.91;;;-1.19;68.31
22031;BME280;11179;52.106;21.024;2024-01-06T10:26:36;100087.28;;;-1.21;68.24
22031;BME280;11179;52.106;21.024;2024-01-06T10:29:01;100084.22;;;-1.33;68.34
22031;BME280;11179;52.106;21.024;2024-01-06T10:31:27;100082.47;;;-1.40;68.29
22031;BME280;11179;52.106;21.024;2024-01-06T10:33:52;100089.88;;;-1.42;68.49
22031;BME280;11179;52.106;21.024;2024-01-06T10:36:18;100087.97;;;-1.48;68.59
22031;BME280;11179;52.106;21.024;2024-01-06T10:38:46;100090.72;;;-1.42;68.36
22031;BME280;11179;52.106;21.024;2024-01-06T10:41:12;100092.69;;;-1.50;68.53
22031;BME280;11179;52.106;21.024;2024-01-06T10:43:41;100093.53;;;-1.35;68.34
22031;BME280;11179;52.106;21.024;2024-01-06T10:46:09;100088.84;;;-1.26;68.54
22031;BME280;11179;52.106;21.024;2024-01-06T10:48:39;100094.06;;;-1.25;68.05
22031;BME280;11179;52.106;21.024;2024-01-06T10:51:09;100088.47;;;-1.23;68.22
22031;BME280;11179;52.106;21.024;2024-01-06T10:53:34;100089.38;;;-1.16;68.13
22031;BME280;11179;52.106;21.024;2024-01-06T10:56:05;100091.91;;;-1.15;67.84
22031;BME280;11179;52.106;21.024;2024-01-06T10:58:34;100084.69;;;-1.29;67.86
22031;BME280;11179;52.106;21.024;2024-01-06T11:01:03;100093.03;;;-1.24;68.01
22031;BME280;11179;52.106;21.024;2024-01-06T11:03:29;100083.94;;;-1.38;67.77
22031;BME280;11179;52.106;21.024;2024-01-06T11:05:56;100083.19;;;-1.46;67.90
22031;BME280;11179;52.106;21.024;2024-01-06T11:08:22;100081.16;;;-1.44;68.14
22031;BME280;11179;52.106;21.024;2024-01-06T11:10:49;100082.47;;;-1.40;68.17
22031;BME280;11179;52.106;21.024;2024-01-06T11:13:16;100080.50;;;-1.32;68.00
22031;BME280;11179;52.106;21.024;2024-01-06T11:15:50;100087.66;;;-1.24;68.02
22031;BME280;11179;52.106;21.024;2024-01-06T11:18:37;100103.50;;;-1.14;67.69
22031;BME280;11179;52.106;21.024;2024-01-06T11:24:07;100097.47;;;-1.31;67.40
22031;BME280;11179;52.106;21.024;2024-01-06T11:26:34;100085.81;;;-1.53;67.60
22031;BME280;11179;52.106;21.024;2024-01-06T11:29:03;100090.56;;;-1.55;67.98
22031;BME280;11179;52.106;21.024;2024-01-06T11:31:30;100097.31;;;-1.59;67.71
22031;BME280;11179;52.106;21.024;2024-01-06T11:33:56;100083.13;;;-1.68;68.07
22031;BME280;11179;52.106;21.024;2024-01-06T11:36:21;100088.41;;;-1.59;68.05
22031;BME280;11179;52.106;21.024;2024-01-06T11:38:47;100096.03;;;-1.48;68.24
22031;BME280;11179;52.106;21.024;2024-01-06T11:41:50;100095.94;;;-1.40;67.77
22031;BME280;11179;52.106;21.024;2024-01-06T11:44:20;100084.69;;;-1.58;67.81
22031;BME280;11179;52.106;21.024;2024-01-06T11:46:47;100089.16;;;-1.66;67.83
22031;BME280;11179;52.106;21.024;2024-01-06T11:49:15;100098.81;;;-1.71;67.93
22031;BME280;11179;52.106;21.024;2024-01-06T11:51:41;100097.97;;;-1.72;68.44
22031;BME280;11179;52.106;21.024;2024-01-06T11:54:06;100095.75;;;-1.68;68.21
22031;BME280;11179;52.106;21.024;2024-01-06T11:56:32;100100.22;;;-1.60;68.23
22031;BME280;11179;52.106;21.024;2024-01-06T11:58:57;100090.47;;;-1.61;67.97
22031;BME280;11179;52.106;21.024;2024-01-06T12:01:22;100093.78;;;-1.59;68.36
22031;BME280;11179;52.106;21.024;2024-01-06T12:03:54;100095.66;;;-1.60;68.37
22031;BME280;11179;52.106;21.024;2024-01-06T12:06:20;100104.19;;;-1.56;68.15
22031;BME280;11179;52.106;21.024;2024-01-06T12:08:46;100109.09;;;-1.60;68.19
22031;BME280;11179;52.106;21.024;2024-01-06T12:11:11;100104.19;;;-1.56;68.37
22031;BME280;11179;52.106;21.024;2024-01-06T12:13:37;100106.53;;;-1.68;68.13
22031;BME280;11179;52.106;21.024;2024-01-06T12:16:02;100111.06;;;-1.69;68.38
22031;BME280;11179;52.106;21.024;2024-01-06T12:18:28;100105.78;;;-1.62;68.30
22031;BME280;11179;52.106;21.024;2024-01-06T12:20:53;100110.53;;;-1.49;68.29
22031;BME280;11179;52.106;21.024;2024-01-06T12:23:26;100106.59;;;-1.32;68.12
22031;BME280;11179;52.106;21.024;2024-01-06T12:25:53;100104.56;;;-1.45;67.74
22031;BME280;11179;52.106;21.024;2024-01-06T12:28:18;100105.78;;;-1.47;67.94
22031;BME280;11179;52.106;21.024;2024-01-06T12:30:44;100107.53;;;-1.40;67.89
22031;BME280;11179;52.106;21.024;2024-01-06T12:33:09;100101.88;;;-1.45;68.00
22031;BME280;11179;52.106;21.024;2024-01-06T12:35:35;100110.59;;;-1.43;67.70
22031;BME280;11179;52.106;21.024;2024-01-06T12:38:02;100111.72;;;-1.37;67.93
22031;BME280;11179;52.106;21.024;2024-01-06T12:40:30;100119.03;;;-1.31;67.85
22031;BME280;11179;52.106;21.024;2024-01-06T12:42:56;100114.47;;;-1.31;67.79